createdAt,value
2019-03-06T00:01:23.987Z,78.01
2019-03-06T00:03:57.243Z,78.00
2019-03-06T00:06:30.699Z,78.08
2019-03-06T00:09:05.311Z,78.05
2019-03-06T00:11:39.843Z,77.98
2019-03-06T00:14:12.707Z,78.01
2019-03-06T00:16:45.535Z,77.89
2019-03-06T00:19:18.586Z,77.89
2019-03-06T00:21:51.540Z,78.09
2019-03-06T00:24:24.357Z,77.99
2019-03-06T00:26:57.165Z,78.01
2019-03-06T00:29:29.983Z,77.98
2019-03-06T00:32:02.958Z,78.20
2019-03-06T00:34:35.879Z,78.30
2019-03-06T00:37:08.646Z,78.57
2019-03-06T00:40:00.365Z,78.48
2019-03-06T00:42:36.609Z,78.34
2019-03-06T00:45:10.593Z,78.48
2019-03-06T00:47:43.435Z,78.76
2019-03-06T00:50:16.179Z,78.85
2019-03-06T00:52:49.030Z,78.83
2019-03-06T00:55:22.372Z,79.00
2019-03-06T00:57:55.253Z,79.09
2019-03-06T01:00:29.318Z,79.29
2019-03-06T01:03:02.204Z,79.09
2019-03-06T01:05:34.984Z,79.18
2019-03-06T01:08:07.894Z,79.12
2019-03-06T01:10:41.144Z,79.11
2019-03-06T01:13:14.215Z,79.30
2019-03-06T01:15:47.355Z,79.47
2019-03-06T01:18:20.147Z,79.57
2019-03-06T01:20:53.047Z,79.61
2019-03-06T01:23:25.994Z,79.50
2019-03-06T01:25:58.798Z,79.51
2019-03-06T01:28:31.551Z,79.68
2019-03-06T01:31:04.305Z,79.71
2019-03-06T01:33:54.695Z,79.77
2019-03-06T01:36:49.552Z,79.84
2019-03-06T01:39:49.557Z,79.78
2019-03-06T01:42:35.350Z,79.80
2019-03-06T01:45:10.952Z,79.84
2019-03-06T01:47:43.717Z,80.02
2019-03-06T01:50:17.019Z,80.15
2019-03-06T01:52:50.144Z,80.30
2019-03-06T01:55:23.028Z,80.30
2019-03-06T01:57:55.899Z,80.42
2019-03-06T02:00:28.850Z,80.33
2019-03-06T02:03:01.962Z,80.24
2019-03-06T02:05:34.839Z,80.23
2019-03-06T02:08:08.099Z,80.39
2019-03-06T02:10:41.597Z,80.42
2019-03-06T02:13:14.528Z,80.48
2019-03-06T02:15:47.363Z,80.39
2019-03-06T02:18:20.217Z,80.31
2019-03-06T02:20:53.126Z,80.39
2019-03-06T02:23:26.053Z,80.44
2019-03-06T02:25:58.941Z,80.55
2019-03-06T02:28:31.869Z,80.52
2019-03-06T02:31:04.660Z,80.64
2019-03-06T02:33:37.540Z,80.52
2019-03-06T02:36:11.602Z,80.49
2019-03-06T02:38:44.757Z,80.47
2019-03-06T02:41:18.675Z,80.62
2019-03-06T02:43:51.554Z,80.57
2019-03-06T02:46:24.453Z,80.50
2019-03-06T02:48:57.532Z,80.46
2019-03-06T02:51:30.405Z,80.54
2019-03-06T02:54:03.477Z,80.49
2019-03-06T02:56:36.342Z,80.46
2019-03-06T02:59:27.960Z,80.50
2019-03-06T03:02:18.360Z,80.54
2019-03-06T03:05:02.203Z,80.47
2019-03-06T03:07:38.957Z,80.63
2019-03-06T03:10:14.965Z,80.74
2019-03-06T03:12:55.379Z,80.67
2019-03-06T03:15:28.788Z,80.83
2019-03-06T03:18:02.098Z,80.86
2019-03-06T03:20:36.447Z,80.76
2019-03-06T03:23:09.495Z,80.74
2019-03-06T03:25:42.829Z,80.77
2019-03-06T03:28:16.183Z,80.78
2019-03-06T03:30:50.456Z,80.97
2019-03-06T03:33:23.510Z,81.00
2019-03-06T03:35:56.396Z,81.01
2019-03-06T03:38:29.336Z,80.75
2019-03-06T03:41:03.063Z,80.59
2019-03-06T03:43:36.089Z,80.47
2019-03-06T03:46:09.071Z,80.30
2019-03-06T03:48:41.945Z,80.13
2019-03-06T03:51:14.757Z,80.06
2019-03-06T03:53:47.806Z,79.93
2019-03-06T03:56:20.842Z,79.79
2019-03-06T03:58:53.826Z,79.72
2019-03-06T04:01:26.722Z,79.54
2019-03-06T04:04:00.632Z,79.46
2019-03-06T04:06:33.575Z,79.36
2019-03-06T04:09:08.453Z,79.35
2019-03-06T04:11:43.411Z,79.13
2019-03-06T04:14:16.959Z,78.86
2019-03-06T04:16:49.968Z,78.89
2019-03-06T04:19:22.803Z,78.93
2019-03-06T04:21:55.864Z,79.03
2019-03-06T04:24:29.141Z,79.21
2019-03-06T04:27:03.937Z,79.14
2019-03-06T04:29:36.763Z,79.33
2019-03-06T04:32:09.664Z,79.23
2019-03-06T04:34:42.686Z,79.06
2019-03-06T04:37:15.659Z,79.04
2019-03-06T04:39:49.929Z,79.18
2019-03-06T04:42:22.762Z,79.27
2019-03-06T04:44:55.594Z,79.31
2019-03-06T04:47:29.493Z,79.18
2019-03-06T04:50:02.357Z,79.41
2019-03-06T04:52:36.365Z,79.93
2019-03-06T04:55:10.479Z,80.03
2019-03-06T04:57:46.051Z,80.03
2019-03-06T05:00:19.272Z,80.19
2019-03-06T05:02:52.237Z,80.18
2019-03-06T05:05:25.163Z,80.33
2019-03-06T05:07:58.103Z,80.41
2019-03-06T05:10:39.312Z,80.31
2019-03-06T05:13:14.943Z,80.39
2019-03-06T05:15:49.853Z,80.34
2019-03-06T05:18:30.168Z,79.92
2019-03-06T05:21:03.370Z,80.07
2019-03-06T05:23:38.439Z,80.06
2019-03-06T05:26:13.698Z,79.99
2019-03-06T05:28:49.743Z,80.19
2019-03-06T05:31:22.578Z,80.30
2019-03-06T05:33:55.447Z,80.46
2019-03-06T05:37:20.384Z,80.57
2019-03-06T05:39:53.303Z,80.84
2019-03-06T05:42:26.477Z,80.91
2019-03-06T05:44:59.458Z,81.06
2019-03-06T05:47:32.311Z,81.16
2019-03-06T05:50:05.330Z,81.16
2019-03-06T05:52:38.293Z,80.98
2019-03-06T05:55:13.125Z,80.93
2019-03-06T05:57:46.088Z,80.97
2019-03-06T06:00:20.625Z,81.04
2019-03-06T06:02:53.842Z,80.77
2019-03-06T06:05:28.210Z,80.77
2019-03-06T06:08:01.116Z,80.56
2019-03-06T06:10:34.669Z,80.38
2019-03-06T06:13:07.645Z,80.05
2019-03-06T06:15:40.390Z,79.54
2019-03-06T06:18:13.214Z,79.81
2019-03-06T06:20:47.606Z,79.81
2019-03-06T06:23:42.278Z,79.75
2019-03-06T06:26:15.009Z,79.48
2019-03-06T06:28:47.799Z,79.40
2019-03-06T06:31:20.886Z,79.14
2019-03-06T06:33:53.865Z,79.03
2019-03-06T06:36:26.776Z,79.04
2019-03-06T06:38:59.631Z,79.04
2019-03-06T06:41:32.517Z,78.98
2019-03-06T06:44:07.772Z,79.00
2019-03-06T06:46:40.671Z,78.88
2019-03-06T06:49:13.629Z,78.72
2019-03-06T06:52:22.628Z,78.59
2019-03-06T06:55:34.342Z,78.41
2019-03-06T06:58:51.734Z,78.46
2019-03-06T07:02:10.720Z,78.59
2019-03-06T07:05:30.397Z,78.41
2019-03-06T07:08:20.688Z,78.08
2019-03-06T07:11:14.558Z,77.82
2019-03-06T07:14:06.421Z,77.45
2019-03-06T07:16:57.512Z,77.45
2019-03-06T07:19:40.276Z,77.15
2019-03-06T07:22:18.092Z,77.09
2019-03-06T07:25:02.950Z,77.10
2019-03-06T07:27:56.368Z,76.63
2019-03-06T07:30:57.054Z,76.86
2019-03-06T07:34:01.254Z,76.56
2019-03-06T07:37:05.655Z,76.34
2019-03-06T07:39:57.277Z,75.88
2019-03-06T07:42:42.167Z,75.84
2019-03-06T07:46:05.787Z,75.93
2019-03-06T07:49:19.418Z,74.91
2019-03-06T07:52:09.691Z,74.25
2019-03-06T07:55:00.322Z,74.22
2019-03-06T07:57:41.586Z,74.12
2019-03-06T08:00:20.985Z,73.94
2019-03-06T08:03:20.344Z,72.94
2019-03-06T08:05:53.266Z,72.62
2019-03-06T08:08:26.022Z,72.74
2019-03-06T08:10:59.688Z,71.85
2019-03-06T08:13:41.296Z,72.00
2019-03-06T08:16:23.586Z,71.88
2019-03-06T08:19:18.875Z,71.45
2019-03-06T08:22:16.948Z,71.80
2019-03-06T08:24:58.893Z,70.99
2019-03-06T08:27:31.814Z,71.30
2019-03-06T08:30:07.381Z,69.60
2019-03-06T08:32:40.176Z,69.09
2019-03-06T08:35:14.666Z,68.73
2019-03-06T08:37:47.567Z,68.61
2019-03-06T08:40:20.341Z,67.28
2019-03-06T08:42:53.267Z,67.01
2019-03-06T08:45:30.102Z,66.41
2019-03-06T08:48:09.487Z,65.78
2019-03-06T08:50:49.461Z,64.77
2019-03-06T08:53:33.330Z,62.03
2019-03-06T08:56:13.603Z,58.88
2019-03-06T08:59:05.416Z,57.12
2019-03-06T09:02:00.637Z,53.91
2019-03-06T09:04:55.754Z,52.63
2019-03-06T09:07:46.397Z,52.63
2019-03-06T09:10:49.204Z,50.77
2019-03-06T09:13:42.290Z,49.84
2019-03-06T09:16:31.077Z,49.40
2019-03-06T09:19:22.463Z,46.93
2019-03-06T09:22:26.362Z,46.66
2019-03-06T09:25:16.823Z,45.44
2019-03-06T09:28:05.008Z,45.21
2019-03-06T09:31:13.651Z,44.86
2019-03-06T09:34:03.396Z,44.60
2019-03-06T09:36:45.871Z,44.66
2019-03-06T09:39:44.115Z,44.26
2019-03-06T09:42:38.544Z,42.74
2019-03-06T09:45:38.181Z,41.90
2019-03-06T09:48:32.657Z,41.28
2019-03-06T09:51:22.776Z,39.80
2019-03-06T09:54:17.383Z,39.19
2019-03-06T09:57:21.348Z,39.03
2019-03-06T10:00:03.440Z,38.35
2019-03-06T10:02:48.482Z,36.50
2019-03-06T10:05:26.765Z,37.78
2019-03-06T10:08:17.197Z,38.09
2019-03-06T10:11:04.695Z,36.78
2019-03-06T10:13:53.432Z,36.32
2019-03-06T10:16:49.739Z,35.28
2019-03-06T10:19:31.447Z,35.93
2019-03-06T10:22:04.530Z,36.38
2019-03-06T10:24:37.327Z,36.75
2019-03-06T10:27:13.563Z,36.33
2019-03-06T10:29:46.469Z,35.78
2019-03-06T10:32:19.372Z,36.05
2019-03-06T10:34:52.300Z,35.64
2019-03-06T10:37:25.278Z,37.74
2019-03-06T10:39:58.282Z,37.08
2019-03-06T10:42:31.085Z,37.04
2019-03-06T10:45:04.026Z,36.47
2019-03-06T10:47:38.232Z,36.53
2019-03-06T10:50:14.032Z,35.35
2019-03-06T10:52:46.945Z,36.09
2019-03-06T10:55:20.621Z,36.69
2019-03-06T10:57:53.504Z,36.85
2019-03-06T11:00:29.813Z,36.24
2019-03-06T11:03:03.259Z,36.18
2019-03-06T11:05:36.488Z,35.18
2019-03-06T11:08:09.842Z,36.38
2019-03-06T11:10:43.131Z,35.02
2019-03-06T11:13:16.186Z,35.85
2019-03-06T11:15:55.716Z,35.74
2019-03-06T11:18:24.770Z,33.50
2019-03-06T11:20:57.991Z,34.77
2019-03-06T11:23:31.179Z,33.71
2019-03-06T11:26:05.549Z,33.04
2019-03-06T11:28:40.178Z,32.18
2019-03-06T11:31:13.960Z,32.78
2019-03-06T11:33:47.206Z,33.51
2019-03-06T11:36:20.710Z,34.55
2019-03-06T11:38:53.993Z,34.11
2019-03-06T11:41:27.159Z,34.18
2019-03-06T11:44:00.461Z,34.15
2019-03-06T11:46:33.752Z,34.28
2019-03-06T11:49:07.735Z,33.62
2019-03-06T11:51:40.700Z,34.26
2019-03-06T11:54:13.996Z,32.93
2019-03-06T11:56:47.363Z,32.64
2019-03-06T11:59:21.180Z,34.49
2019-03-06T12:01:55.327Z,35.16
2019-03-06T12:04:28.648Z,37.03
2019-03-06T12:07:01.812Z,36.26
2019-03-06T12:09:35.070Z,35.60
2019-03-06T12:12:08.059Z,34.98
2019-03-06T12:14:41.603Z,35.54
2019-03-06T12:17:14.911Z,34.52
2019-03-06T12:19:48.354Z,34.24
2019-03-06T12:22:21.397Z,33.76
2019-03-06T12:24:54.394Z,32.55
2019-03-06T12:27:29.067Z,33.20
2019-03-06T12:30:02.223Z,32.58
2019-03-06T12:32:36.620Z,32.94
2019-03-06T12:35:09.625Z,32.58
2019-03-06T12:37:46.897Z,32.55
2019-03-06T12:40:18.032Z,32.77
2019-03-06T12:42:50.961Z,33.47
2019-03-06T12:45:24.177Z,33.61
2019-03-06T12:47:57.082Z,32.39
2019-03-06T12:50:31.406Z,31.80
2019-03-06T12:53:04.342Z,31.94
2019-03-06T12:55:37.403Z,31.52
2019-03-06T12:58:10.569Z,31.78
2019-03-06T13:00:44.681Z,32.53
2019-03-06T13:03:18.314Z,32.67
2019-03-06T13:05:51.223Z,33.58
2019-03-06T13:08:24.239Z,32.83
2019-03-06T13:10:58.474Z,33.62
2019-03-06T13:13:35.474Z,33.41
2019-03-06T13:16:06.741Z,32.17
2019-03-06T13:18:39.672Z,32.65
2019-03-06T13:21:12.815Z,31.28
2019-03-06T13:23:45.830Z,31.88
2019-03-06T13:26:20.663Z,31.80
2019-03-06T13:28:57.529Z,31.65
2019-03-06T13:31:28.414Z,31.93
2019-03-06T13:34:06.508Z,31.27
2019-03-06T13:36:39.447Z,32.64
2019-03-06T13:39:12.610Z,33.70
2019-03-06T13:41:46.086Z,34.00
2019-03-06T13:44:19.640Z,34.18
2019-03-06T13:46:53.819Z,35.29
2019-03-06T13:49:26.906Z,35.15
2019-03-06T13:52:00.101Z,36.21
2019-03-06T13:54:33.271Z,36.78
2019-03-06T13:57:06.297Z,37.40
2019-03-06T13:59:39.399Z,38.14
2019-03-06T14:02:12.438Z,37.28
2019-03-06T14:04:45.619Z,37.93
2019-03-06T14:07:18.401Z,36.21
2019-03-06T14:09:51.567Z,35.73
2019-03-06T14:12:26.052Z,35.18
2019-03-06T14:14:59.132Z,32.98
2019-03-06T14:17:34.004Z,33.12
2019-03-06T14:20:07.814Z,34.17
2019-03-06T14:22:40.884Z,35.34
2019-03-06T14:25:15.573Z,34.79
2019-03-06T14:27:48.892Z,35.37
2019-03-06T14:30:22.585Z,35.14
2019-03-06T14:32:55.554Z,35.42
2019-03-06T14:35:29.958Z,35.32
2019-03-06T14:38:09.010Z,36.13
2019-03-06T14:40:42.365Z,35.76
2019-03-06T14:43:18.585Z,36.42
2019-03-06T14:45:55.117Z,37.66
2019-03-06T14:48:28.559Z,38.07
2019-03-06T14:51:02.211Z,39.07
2019-03-06T14:53:35.346Z,39.64
2019-03-06T14:56:10.137Z,40.15
2019-03-06T14:58:43.042Z,40.62
2019-03-06T15:01:21.084Z,39.83
2019-03-06T15:03:55.151Z,38.98
2019-03-06T15:06:30.437Z,39.61
2019-03-06T15:09:15.966Z,38.28
2019-03-06T15:11:48.946Z,38.39
2019-03-06T15:14:22.925Z,38.66
2019-03-06T15:16:55.909Z,38.28
2019-03-06T15:19:29.822Z,38.45
2019-03-06T15:22:06.322Z,38.95
2019-03-06T15:24:41.953Z,39.16
2019-03-06T15:27:15.880Z,39.65
2019-03-06T15:30:00.196Z,40.13
2019-03-06T15:32:39.455Z,40.17
2019-03-06T15:35:13.777Z,40.73
2019-03-06T15:37:51.406Z,41.25
2019-03-06T15:40:28.731Z,41.71
2019-03-06T15:43:01.773Z,42.05
2019-03-06T15:45:34.865Z,42.46
2019-03-06T15:48:08.202Z,42.99
2019-03-06T15:50:41.103Z,43.40
2019-03-06T15:53:24.062Z,43.67
2019-03-06T15:55:53.916Z,43.85
2019-03-06T15:58:27.047Z,44.03
2019-03-06T16:01:02.883Z,44.25
2019-03-06T16:03:37.311Z,44.48
2019-03-06T16:06:19.905Z,44.60
2019-03-06T16:08:44.787Z,44.75
2019-03-06T16:11:19.740Z,45.08
2019-03-06T16:13:53.069Z,45.11
2019-03-06T16:16:27.377Z,45.23
2019-03-06T16:19:00.251Z,45.05
2019-03-06T16:21:35.312Z,45.34
2019-03-06T16:24:09.854Z,45.66
2019-03-06T16:26:43.972Z,45.94
2019-03-06T16:29:17.040Z,46.18
2019-03-06T16:31:51.136Z,46.64
2019-03-06T16:34:24.096Z,46.93
2019-03-06T16:37:01.668Z,46.93
2019-03-06T16:39:40.451Z,47.02
2019-03-06T16:42:13.286Z,46.97
2019-03-06T16:44:46.340Z,47.14
2019-03-06T16:47:19.956Z,47.22
2019-03-06T16:49:53.273Z,47.30
2019-03-06T16:52:26.730Z,47.14
2019-03-06T16:55:01.800Z,46.94
2019-03-06T16:57:34.972Z,47.11
2019-03-06T17:00:26.903Z,46.89
2019-03-06T17:03:06.659Z,47.04
2019-03-06T17:05:44.564Z,47.25
2019-03-06T17:08:20.955Z,47.41
2019-03-06T17:10:54.161Z,47.67
2019-03-06T17:13:27.170Z,47.91
2019-03-06T17:16:00.791Z,48.30
2019-03-06T17:18:33.856Z,48.60
2019-03-06T17:21:06.864Z,48.90
2019-03-06T17:23:39.912Z,49.77
2019-03-06T17:26:12.805Z,49.96
2019-03-06T17:28:45.782Z,49.96
2019-03-06T17:31:18.802Z,50.03
2019-03-06T17:33:51.693Z,50.32
2019-03-06T17:36:24.891Z,50.74
2019-03-06T17:39:00.773Z,50.82
2019-03-06T17:41:35.402Z,50.57
2019-03-06T17:44:08.538Z,50.57
2019-03-06T17:46:41.474Z,49.73
2019-03-06T17:49:19.170Z,49.73
2019-03-06T17:51:53.011Z,49.31
2019-03-06T17:54:28.172Z,48.32
2019-03-06T17:57:01.222Z,48.32
2019-03-06T17:59:34.927Z,48.59
2019-03-06T18:02:15.560Z,48.32
2019-03-06T18:04:48.577Z,47.91
2019-03-06T18:07:21.907Z,47.91
2019-03-06T18:09:54.876Z,47.92
2019-03-06T18:12:30.814Z,48.11
2019-03-06T18:15:03.902Z,48.00
2019-03-06T18:17:37.004Z,48.06
2019-03-06T18:20:13.763Z,48.09
2019-03-06T18:22:47.136Z,48.15
2019-03-06T18:25:20.332Z,48.09
2019-03-06T18:27:53.448Z,47.90
2019-03-06T18:30:27.190Z,47.93
2019-03-06T18:33:01.693Z,47.96
2019-03-06T18:35:34.896Z,48.00
2019-03-06T18:38:13.142Z,47.99
2019-03-06T18:40:46.564Z,48.21
2019-03-06T18:43:19.883Z,48.35
2019-03-06T18:45:53.229Z,48.52
2019-03-06T18:48:26.801Z,48.70
2019-03-06T18:50:59.824Z,48.96
2019-03-06T18:53:32.792Z,49.29
2019-03-06T18:56:06.108Z,49.14
2019-03-06T18:58:39.171Z,49.42
2019-03-06T19:01:12.252Z,49.55
2019-03-06T19:03:45.523Z,49.73
2019-03-06T19:06:20.780Z,49.97
2019-03-06T19:08:53.865Z,49.97
2019-03-06T19:11:26.915Z,50.45
2019-03-06T19:13:59.980Z,50.64
2019-03-06T19:16:33.080Z,50.90
2019-03-06T19:19:07.505Z,51.01
2019-03-06T19:21:41.077Z,51.21
2019-03-06T19:24:14.439Z,51.28
2019-03-06T19:26:47.599Z,51.41
2019-03-06T19:29:20.882Z,51.60
2019-03-06T19:31:54.009Z,51.75
2019-03-06T19:34:27.391Z,51.91
2019-03-06T19:37:00.571Z,52.13
2019-03-06T19:39:33.599Z,52.36
2019-03-06T19:42:06.729Z,52.55
2019-03-06T19:44:40.769Z,52.77
2019-03-06T19:47:16.579Z,52.92
2019-03-06T19:49:49.919Z,53.14
2019-03-06T19:52:23.111Z,53.28
2019-03-06T19:54:56.401Z,53.27
2019-03-06T19:57:36.614Z,53.43
2019-03-06T20:00:12.476Z,53.54
2019-03-06T20:02:47.097Z,53.63
2019-03-06T20:05:20.636Z,53.75
2019-03-06T20:07:54.170Z,53.73
2019-03-06T20:10:28.950Z,53.87
2019-03-06T20:13:03.314Z,53.96
2019-03-06T20:15:41.871Z,54.14
2019-03-06T20:18:18.444Z,54.34
2019-03-06T20:20:53.428Z,54.46
2019-03-06T20:23:32.422Z,54.71
2019-03-06T20:26:13.865Z,55.17
2019-03-06T20:28:41.700Z,54.79
2019-03-06T20:31:14.817Z,54.71
2019-03-06T20:33:50.581Z,54.41
2019-03-06T20:36:26.992Z,54.99
2019-03-06T20:39:00.437Z,55.31
2019-03-06T20:41:35.370Z,55.31
2019-03-06T20:44:08.873Z,55.51
2019-03-06T20:46:45.506Z,55.51
2019-03-06T20:49:20.438Z,55.89
2019-03-06T20:51:53.953Z,55.86
2019-03-06T20:54:35.165Z,56.12
2019-03-06T20:57:09.358Z,56.26
2019-03-06T20:59:45.404Z,56.29
2019-03-06T21:02:18.760Z,56.61
2019-03-06T21:04:51.910Z,56.50
2019-03-06T21:07:26.300Z,56.61
2019-03-06T21:09:59.568Z,56.79
2019-03-06T21:12:32.913Z,56.72
2019-03-06T21:15:06.821Z,56.51
2019-03-06T21:17:39.910Z,56.43
2019-03-06T21:20:15.967Z,56.32
2019-03-06T21:22:49.033Z,56.31
2019-03-06T21:25:22.052Z,56.19
2019-03-06T21:27:55.554Z,56.25
2019-03-06T21:30:31.066Z,56.09
2019-03-06T21:33:05.952Z,55.92
2019-03-06T21:35:44.224Z,55.92
2019-03-06T21:38:17.116Z,55.84
2019-03-06T21:40:50.284Z,55.73
2019-03-06T21:43:23.399Z,55.64
2019-03-06T21:45:56.434Z,55.64
2019-03-06T21:48:33.723Z,55.55
2019-03-06T21:51:07.432Z,55.61
2019-03-06T21:53:40.459Z,55.58
2019-03-06T21:56:13.582Z,55.57
2019-03-06T21:58:46.802Z,55.75
2019-03-06T22:01:20.104Z,55.84
2019-03-06T22:03:53.137Z,55.84
2019-03-06T22:06:26.020Z,55.80
2019-03-06T22:08:59.052Z,55.95
2019-03-06T22:11:32.449Z,55.95
2019-03-06T22:14:05.335Z,56.12
2019-03-06T22:16:38.286Z,56.22
2019-03-06T22:19:11.190Z,56.41
2019-03-06T22:21:44.159Z,56.34
2019-03-06T22:24:17.144Z,56.49
2019-03-06T22:26:50.188Z,56.42
2019-03-06T22:29:23.208Z,56.53
2019-03-06T22:31:56.067Z,56.74
2019-03-06T22:34:29.443Z,56.84
2019-03-06T22:37:02.583Z,56.98
2019-03-06T22:39:43.251Z,57.04
2019-03-06T22:42:34.571Z,57.13
2019-03-06T22:45:11.551Z,57.24
2019-03-06T22:47:44.564Z,57.41
2019-03-06T22:50:19.441Z,57.47
2019-03-06T22:52:55.769Z,57.58
2019-03-06T22:55:30.085Z,57.70
2019-03-06T22:58:03.218Z,57.61
2019-03-06T23:01:22.698Z,57.74
2019-03-06T23:03:58.066Z,57.88
2019-03-06T23:06:30.947Z,57.93
2019-03-06T23:09:05.772Z,58.02
2019-03-06T23:11:40.622Z,58.14
2019-03-06T23:14:17.718Z,58.24
2019-03-06T23:16:50.729Z,58.37
2019-03-06T23:19:24.329Z,58.76
2019-03-06T23:21:57.215Z,58.91
2019-03-06T23:24:30.010Z,58.96
2019-03-06T23:27:03.644Z,59.01
2019-03-06T23:29:36.831Z,59.08
2019-03-06T23:32:09.583Z,59.05
2019-03-06T23:34:42.405Z,59.14
2019-03-06T23:37:15.286Z,59.14
2019-03-06T23:39:48.430Z,59.21
2019-03-06T23:42:21.374Z,59.14
2019-03-06T23:44:56.084Z,59.26
2019-03-06T23:47:29.207Z,59.36
2019-03-06T23:50:05.529Z,59.52
2019-03-06T23:52:58.073Z,59.60
2019-03-06T23:55:31.368Z,59.60
2019-03-06T23:58:09.508Z,59.58
